createdAt,value
2023-02-15T00:02:20.834Z,99538.41
2023-02-15T00:05:23.576Z,99537.31
2023-02-15T00:08:26.334Z,99530.94
2023-02-15T00:11:50.678Z,99526.75
2023-02-15T00:14:55.443Z,99516.34
2023-02-15T00:17:58.986Z,99512.97
2023-02-15T00:21:06.320Z,99510.97
2023-02-15T00:24:11.043Z,99509.06
2023-02-15T00:27:13.965Z,99516.44
2023-02-15T00:30:19.207Z,99514.72
2023-02-15T00:33:21.913Z,99522.28
2023-02-15T00:36:24.630Z,99511.44
2023-02-15T00:39:28.263Z,99513.72
2023-02-15T00:42:30.956Z,99507.97
2023-02-15T00:45:35.156Z,99508.34
2023-02-15T00:48:37.852Z,99514.66
2023-02-15T00:51:41.324Z,99514.47
2023-02-15T00:54:45.070Z,99516.16
2023-02-15T00:57:47.735Z,99517.19
2023-02-15T01:00:51.971Z,99512.44
2023-02-15T01:03:54.704Z,99506.50
2023-02-15T01:06:57.360Z,99504.06
2023-02-15T01:10:00.007Z,99510.63
2023-02-15T01:13:02.695Z,99507.34
2023-02-15T01:16:06.948Z,99507.88
2023-02-15T01:19:09.596Z,99508.88
2023-02-15T01:22:12.225Z,99503.75
2023-02-15T01:25:14.859Z,99507.75
2023-02-15T01:28:17.586Z,99515.53
2023-02-15T01:31:23.361Z,99517.59
2023-02-15T01:34:26.237Z,99512.31
2023-02-15T01:37:28.937Z,99511.34
2023-02-15T01:40:31.552Z,99510.97
2023-02-15T01:43:42.462Z,99509.97
2023-02-15T01:46:52.774Z,99502.47
2023-02-15T01:50:03.645Z,99510.78
2023-02-15T01:53:14.905Z,99500.75
2023-02-15T01:56:21.828Z,99498.09
2023-02-15T01:59:27.678Z,99502.28
2023-02-15T02:02:32.725Z,99495.53
2023-02-15T02:05:36.085Z,99495.06
2023-02-15T02:08:41.924Z,99491.34
2023-02-15T02:11:49.427Z,99484.50
2023-02-15T02:14:55.029Z,99487.53
2023-02-15T02:18:15.099Z,99496.34
2023-02-15T02:22:03.975Z,99498.69
2023-02-15T02:25:37.232Z,99486.44
2023-02-15T02:29:14.800Z,99486.13
2023-02-15T02:32:50.231Z,99488.41
2023-02-15T02:36:03.519Z,99490.75
2023-02-15T02:39:21.933Z,99483.03
2023-02-15T02:42:31.840Z,99484.81
2023-02-15T02:45:42.258Z,99488.28
2023-02-15T02:48:45.233Z,99494.00
2023-02-15T02:51:49.242Z,99488.03
2023-02-15T02:54:51.916Z,99485.53
2023-02-15T02:57:57.315Z,99484.03
2023-02-15T03:01:06.766Z,99477.47
2023-02-15T03:04:13.698Z,99472.75
2023-02-15T03:07:23.014Z,99471.38
2023-02-15T03:10:27.328Z,99472.19
2023-02-15T03:13:31.054Z,99470.41
2023-02-15T03:16:33.803Z,99467.50
2023-02-15T03:19:39.516Z,99472.41
2023-02-15T03:22:50.281Z,99475.47
2023-02-15T03:25:59.232Z,99477.94
2023-02-15T03:29:05.860Z,99468.16
2023-02-15T03:32:13.115Z,99469.88
2023-02-15T03:35:16.168Z,99464.53
2023-02-15T03:38:27.667Z,99469.44
2023-02-15T03:41:38.996Z,99469.44
2023-02-15T03:44:51.229Z,99475.22
2023-02-15T03:47:56.681Z,99467.84
2023-02-15T03:51:20.307Z,99469.78
2023-02-15T03:54:46.912Z,99486.88
2023-02-15T03:58:07.428Z,99467.16
2023-02-15T04:01:36.055Z,99479.81
2023-02-15T04:04:40.855Z,99463.22
2023-02-15T04:07:43.511Z,99477.00
2023-02-15T04:10:57.020Z,99472.44
2023-02-15T04:13:59.750Z,99469.31
2023-02-15T04:17:01.507Z,99474.97
2023-02-15T04:20:21.662Z,99471.63
2023-02-15T04:23:41.693Z,99471.44
2023-02-15T04:26:45.708Z,99466.34
2023-02-15T04:29:50.791Z,99464.94
2023-02-15T04:32:53.522Z,99465.50
2023-02-15T04:35:57.136Z,99448.38
2023-02-15T04:38:59.887Z,99450.31
2023-02-15T04:42:04.083Z,99451.03
2023-02-15T04:45:07.598Z,99454.84
2023-02-15T04:48:10.265Z,99448.59
2023-02-15T04:51:13.111Z,99437.00
2023-02-15T04:54:15.812Z,99433.38
2023-02-15T04:57:20.073Z,99421.53
2023-02-15T05:00:22.791Z,99432.88
2023-02-15T05:03:25.611Z,99433.38
2023-02-15T05:06:28.350Z,99435.72
2023-02-15T05:09:31.218Z,99448.72
2023-02-15T05:12:35.328Z,99455.81
2023-02-15T05:15:37.976Z,99454.19
2023-02-15T05:18:40.606Z,99447.75
2023-02-15T05:21:43.281Z,99441.66
2023-02-15T05:25:03.500Z,99444.38
2023-02-15T05:28:22.899Z,99445.59
2023-02-15T05:31:25.788Z,99445.22
2023-02-15T05:34:28.559Z,99448.31
2023-02-15T05:37:31.226Z,99448.88
2023-02-15T05:40:33.923Z,99444.25
2023-02-15T05:43:38.250Z,99440.78
2023-02-15T05:46:40.875Z,99443.81
2023-02-15T05:49:43.573Z,99448.72
2023-02-15T05:52:46.269Z,99451.66
2023-02-15T05:55:48.916Z,99444.38
2023-02-15T05:58:55.143Z,99455.03
2023-02-15T06:01:58.233Z,99449.69
2023-02-15T06:05:01.067Z,99446.97
2023-02-15T06:08:05.876Z,99445.75
2023-02-15T06:11:09.127Z,99442.47
2023-02-15T06:14:13.429Z,99452.94
2023-02-15T06:17:18.784Z,99447.22
2023-02-15T06:20:21.403Z,99446.72
2023-02-15T06:23:24.095Z,99451.28
2023-02-15T06:26:26.957Z,99455.53
2023-02-15T06:29:30.989Z,99461.75
2023-02-15T06:32:33.991Z,99459.91
2023-02-15T06:35:36.727Z,99472.03
2023-02-15T06:38:39.412Z,99478.75
2023-02-15T06:41:42.058Z,99471.69
2023-02-15T06:44:46.348Z,99473.66
2023-02-15T06:47:49.091Z,99476.38
2023-02-15T06:50:51.698Z,99478.56
2023-02-15T06:53:54.495Z,99483.22
2023-02-15T06:56:57.212Z,99482.22
2023-02-15T07:00:01.300Z,99480.50
2023-02-15T07:03:04.013Z,99474.44
2023-02-15T07:06:09.426Z,99485.53
2023-02-15T07:09:12.217Z,99483.00
2023-02-15T07:12:32.356Z,99487.78
2023-02-15T07:15:36.456Z,99493.47
2023-02-15T07:18:39.332Z,99502.06
2023-02-15T07:21:45.004Z,99502.91
2023-02-15T07:24:48.423Z,99503.44
2023-02-15T07:27:58.013Z,99501.38
2023-02-15T07:31:05.800Z,99499.19
2023-02-15T07:34:11.662Z,99498.22
2023-02-15T07:37:14.457Z,99494.47
2023-02-15T07:40:17.455Z,99496.41
2023-02-15T07:43:20.176Z,99495.94
2023-02-15T07:46:26.485Z,99490.88
2023-02-15T07:49:29.228Z,99477.53
2023-02-15T07:52:31.897Z,99480.19
2023-02-15T07:55:34.637Z,99476.72
2023-02-15T07:58:52.921Z,99482.19
2023-02-15T08:01:57.521Z,99486.56
2023-02-15T08:05:00.697Z,99489.53
2023-02-15T08:08:03.641Z,99497.00
2023-02-15T08:11:27.305Z,99494.22
2023-02-15T08:14:30.235Z,99498.59
2023-02-15T08:17:38.175Z,99489.22
2023-02-15T08:20:40.891Z,99494.78
2023-02-15T08:23:43.629Z,99500.13
2023-02-15T08:26:47.708Z,99494.84
2023-02-15T08:29:50.448Z,99490.22
2023-02-15T08:32:54.440Z,99491.56
2023-02-15T08:35:57.093Z,99492.66
2023-02-15T08:39:01.529Z,99485.38
2023-02-15T08:42:04.570Z,99490.31
2023-02-15T08:45:08.189Z,99488.09
2023-02-15T08:48:12.324Z,99489.59
2023-02-15T08:51:17.440Z,99493.19
2023-02-15T08:54:22.119Z,99484.06
2023-02-15T08:57:25.198Z,99482.56
2023-02-15T09:00:29.245Z,99480.72
2023-02-15T09:03:33.764Z,99473.34
2023-02-15T09:06:38.155Z,99468.72
2023-02-15T09:09:42.098Z,99471.16
2023-02-15T09:12:45.156Z,99474.34
2023-02-15T09:15:48.380Z,99474.16
2023-02-15T09:18:53.670Z,99464.84
2023-02-15T09:21:56.442Z,99462.84
2023-02-15T09:24:59.134Z,99460.09
2023-02-15T09:28:01.869Z,99451.53
2023-02-15T09:31:09.751Z,99457.91
2023-02-15T09:34:14.804Z,99453.13
2023-02-15T09:37:17.502Z,99444.81
2023-02-15T09:40:20.379Z,99449.00
2023-02-15T09:43:35.366Z,99435.06
2023-02-15T09:46:56.756Z,99448.00
2023-02-15T09:50:07.995Z,99437.50
2023-02-15T09:53:41.564Z,99440.63
2023-02-15T09:56:49.704Z,99430.13
2023-02-15T10:00:04.140Z,99430.22
2023-02-15T10:03:18.940Z,99425.69
2023-02-15T10:06:34.830Z,99417.38
2023-02-15T10:09:57.596Z,99425.41
2023-02-15T10:13:14.377Z,99415.34
2023-02-15T10:16:27.249Z,99416.44
2023-02-15T10:19:40.475Z,99408.44
2023-02-15T10:22:56.480Z,99400.53
2023-02-15T10:26:06.713Z,99395.25
2023-02-15T10:29:17.148Z,99385.72
2023-02-15T10:32:25.673Z,99382.31
2023-02-15T10:35:38.598Z,99383.53
2023-02-15T10:38:49.822Z,99362.28
2023-02-15T10:42:01.886Z,99364.31
2023-02-15T10:45:15.926Z,99363.53
2023-02-15T10:49:03.282Z,99354.59
2023-02-15T10:52:16.551Z,99352.41
2023-02-15T10:55:27.704Z,99349.25
2023-02-15T10:58:40.752Z,99347.25
2023-02-15T11:01:50.616Z,99342.03
2023-02-15T11:05:02.547Z,99336.69
2023-02-15T11:08:10.063Z,99336.09
2023-02-15T11:11:21.485Z,99334.03
2023-02-15T11:14:37.314Z,99330.69
2023-02-15T11:17:43.989Z,99335.56
2023-02-15T11:20:55.243Z,99332.06
2023-02-15T11:23:58.184Z,99327.13
2023-02-15T11:27:07.583Z,99319.25
2023-02-15T11:30:14.830Z,99326.75
2023-02-15T11:33:23.258Z,99328.88
2023-02-15T11:36:30.245Z,99321.78
2023-02-15T11:39:33.798Z,99322.53
2023-02-15T11:42:38.153Z,99324.13
2023-02-15T11:45:44.720Z,99320.06
2023-02-15T11:48:47.559Z,99323.31
2023-02-15T11:51:51.611Z,99305.81
2023-02-15T11:54:55.096Z,99306.91
2023-02-15T11:58:08.052Z,99314.16
2023-02-15T12:01:15.903Z,99310.88
2023-02-15T12:04:26.018Z,99314.31
2023-02-15T12:07:33.541Z,99301.66
2023-02-15T12:10:42.334Z,99301.75
2023-02-15T12:14:00.347Z,99294.13
2023-02-15T12:17:03.253Z,99294.72
2023-02-15T12:20:23.763Z,99284.22
2023-02-15T12:23:30.189Z,99290.09
2023-02-15T12:26:36.146Z,99284.56
2023-02-15T12:29:46.018Z,99275.25
2023-02-15T12:32:52.188Z,99274.97
2023-02-15T12:36:03.011Z,99272.78
2023-02-15T12:39:20.440Z,99275.84
2023-02-15T12:42:24.743Z,99270.13
2023-02-15T12:45:31.065Z,99255.25
2023-02-15T12:48:33.848Z,99261.38
2023-02-15T12:51:51.265Z,99248.41
2023-02-15T18:29:16.285Z,99267.97
2023-02-15T18:33:27.059Z,99272.47
2023-02-15T20:06:09.010Z,99219.97
2023-02-15T20:09:20.800Z,99213.03
2023-02-15T20:12:25.495Z,99217.09
2023-02-15T20:15:30.836Z,99220.38
2023-02-15T20:18:33.616Z,99228.34
2023-02-15T20:21:37.036Z,99226.06
2023-02-15T20:24:41.457Z,99220.78
2023-02-15T20:27:44.247Z,99229.13
2023-02-15T20:30:47.727Z,99230.16
2023-02-15T20:33:51.025Z,99230.16
2023-02-15T20:36:53.740Z,99224.25
2023-02-15T20:39:57.916Z,99222.44
2023-02-15T20:43:00.865Z,99218.53
2023-02-15T20:46:04.736Z,99223.03
2023-02-15T20:49:07.686Z,99218.94
2023-02-15T20:52:19.890Z,99221.59
2023-02-15T20:55:25.553Z,99212.22
2023-02-15T20:58:30.384Z,99218.34
2023-02-15T21:01:33.301Z,99213.84
2023-02-15T21:04:36.061Z,99216.28
2023-02-15T21:07:38.715Z,99217.09
2023-02-15T21:10:45.657Z,99211.78
2023-02-15T21:13:49.540Z,99222.22
2023-02-15T21:16:53.119Z,99216.28
2023-02-15T21:19:55.881Z,99216.06
2023-02-15T21:23:01.464Z,99216.69
2023-02-15T21:26:07.513Z,99211.78
2023-02-15T21:29:16.553Z,99217.09
2023-02-15T21:32:19.816Z,99211.38
2023-02-15T21:35:24.054Z,99207.72
2023-02-15T21:38:31.091Z,99198.31
2023-02-15T21:41:53.160Z,99203.81
2023-02-15T21:45:14.097Z,99197.09
2023-02-15T21:48:17.070Z,99198.50
2023-02-15T21:51:37.223Z,99206.84
2023-02-15T21:54:40.297Z,99205.19
2023-02-15T21:57:44.607Z,99206.34
2023-02-15T22:00:49.385Z,99206.38
2023-02-15T22:03:54.010Z,99205.97
2023-02-15T22:06:57.342Z,99214.53
2023-02-15T22:10:00.466Z,99204.16
2023-02-15T22:13:05.430Z,99204.13
2023-02-15T22:16:08.602Z,99208.22
2023-02-15T22:19:12.914Z,99213.06
2023-02-15T22:22:16.157Z,99214.03
2023-02-15T22:25:21.179Z,99215.28
2023-02-15T22:28:29.053Z,99210.00
2023-02-15T22:31:31.890Z,99206.25
2023-02-15T22:34:34.903Z,99203.94
2023-02-15T22:37:37.849Z,99201.13
2023-02-15T22:40:43.453Z,99201.97
2023-02-15T22:43:48.660Z,99201.28
2023-02-15T22:46:51.699Z,99195.94
2023-02-15T22:49:54.498Z,99205.06
2023-02-15T22:52:57.696Z,99202.44
2023-02-15T22:56:05.731Z,99207.09
2023-02-15T22:59:16.799Z,99212.47
2023-02-15T23:02:19.741Z,99211.94
2023-02-15T23:05:25.292Z,99215.03
2023-02-15T23:08:28.174Z,99216.44
2023-02-15T23:11:31.053Z,99218.47
2023-02-15T23:14:37.024Z,99219.47
2023-02-15T23:17:39.725Z,99219.31
2023-02-15T23:20:42.841Z,99222.09
2023-02-15T23:23:47.535Z,99226.16
2023-02-15T23:26:51.450Z,99225.00
2023-02-15T23:29:55.556Z,99229.88
2023-02-15T23:32:59.237Z,99230.88
2023-02-15T23:36:02.031Z,99223.72
2023-02-15T23:39:28.259Z,99236.75
2023-02-15T23:42:34.890Z,99238.13
2023-02-15T23:45:40.706Z,99236.69
2023-02-15T23:48:43.486Z,99231.78
2023-02-15T23:51:48.848Z,99231.94
2023-02-15T23:54:51.573Z,99234.16
2023-02-15T23:57:54.982Z,99239.75
